Time;durP1;ratioP1;P1;durP2;ratioP2;P2;SDS_P1;SDS_P2;PMS_P1;PMS_P2;Temp;Humidity;BMP_temperature;BMP_pressure;BME280_temperature;BME280_humidity;BME280_pressure;Samples;Min_cycle;Max_cycle;Signal;HPM_P1;HPM_P2
2022/11/16 00:01:18;;;;;;;7.57;4.23;;;6.30;97.30;;;;;;5032646;28;20913;-88
2022/11/16 00:03:44;;;;;;;2.50;2.00;;;6.20;97.30;;;;;;5032614;28;20453;-87
2022/11/16 00:06:11;;;;;;;4.30;3.40;;;6.10;97.30;;;;;;5032779;28;20414;-87
2022/11/16 00:08:40;;;;;;;11.70;4.90;;;6.10;97.30;;;;;;5032515;28;20961;-88
2022/11/16 00:11:14;;;;;;;8.37;4.30;;;6.00;97.30;;;;;;5032464;28;20984;-87
2022/11/16 00:13:41;;;;;;;19.43;5.50;;;6.00;97.30;;;;;;5032713;28;20418;-87
2022/11/16 00:16:13;;;;;;;3.13;2.93;;;5.90;97.30;;;;;;5032355;28;21037;-88
2022/11/16 00:18:39;;;;;;;9.80;6.17;;;5.80;97.30;;;;;;5032695;28;20492;-88
2022/11/16 00:21:05;;;;;;;21.07;4.40;;;5.80;97.30;;;;;;5032262;28;20822;-87
2022/11/16 00:23:31;;;;;;;5.50;2.80;;;5.70;97.30;;;;;;5050477;28;20337;-88
2022/11/16 00:26:03;;;;;;;6.40;4.33;;;5.70;97.30;;;;;;5032482;28;20513;-88
2022/11/16 00:28:28;;;;;;;5.30;3.53;;;5.60;97.30;;;;;;5032307;28;20438;-88
2022/11/16 00:31:02;;;;;;;9.00;3.70;;;5.60;97.30;;;;;;5032622;28;20931;-88
2022/11/16 00:33:27;;;;;;;7.07;3.67;;;5.50;97.30;;;;;;5032617;28;20257;-88
2022/11/16 00:35:53;;;;;;;5.20;4.00;;;5.50;97.30;;;;;;5032555;28;20462;-88
2022/11/16 00:38:19;;;;;;;3.10;2.93;;;5.40;97.30;;;;;;5032193;28;20175;-88
2022/11/16 00:40:45;;;;;;;5.10;4.30;;;5.40;97.30;;;;;;5032057;28;20802;-88
2022/11/16 00:43:10;;;;;;;5.93;3.23;;;5.30;97.30;;;;;;5049960;28;20562;-88
2022/11/16 00:45:38;;;;;;;6.50;5.47;;;5.30;97.30;;;;;;5049760;28;20638;-88
2022/11/16 00:48:04;;;;;;;5.70;4.53;;;5.30;97.30;;;;;;5032616;28;20210;-88
2022/11/16 00:50:30;;;;;;;7.53;4.10;;;5.20;97.30;;;;;;5031723;28;20442;-88
2022/11/16 00:52:55;;;;;;;5.07;3.73;;;5.20;97.30;;;;;;5032141;28;20176;-88
2022/11/16 00:55:21;;;;;;;4.73;3.63;;;5.20;97.30;;;;;;5032053;28;20218;-87
2022/11/16 00:57:47;;;;;;;8.60;4.57;;;5.20;97.30;;;;;;5032100;28;20421;-86
2022/11/16 01:00:13;;;;;;;2.53;2.33;;;5.20;97.30;;;;;;5032126;28;20188;-86
2022/11/16 01:02:39;;;;;;;6.17;4.60;;;5.20;97.30;;;;;;5032138;28;20267;-86
2022/11/16 01:05:07;;;;;;;5.07;4.40;;;5.20;97.30;;;;;;5032001;28;20418;-86
2022/11/16 01:07:35;;;;;;;9.77;5.03;;;5.20;97.30;;;;;;5051983;28;20940;-86
2022/11/16 01:10:02;;;;;;;6.90;4.10;;;5.20;97.30;;;;;;5035818;28;20474;-86
2022/11/16 01:12:28;;;;;;;4.77;3.47;;;5.20;97.30;;;;;;5054412;28;20414;-86
2022/11/16 01:14:53;;;;;;;33.70;7.83;;;5.20;97.30;;;;;;5036093;28;20454;-86
2022/11/16 01:17:19;;;;;;;5.00;3.27;;;5.20;97.30;;;;;;5036169;28;20172;-86
2022/11/16 01:19:44;;;;;;;3.63;3.43;;;5.20;97.30;;;;;;5035738;28;20187;-85
2022/11/16 01:22:10;;;;;;;6.27;3.20;;;5.20;97.30;;;;;;5035949;28;20208;-86
2022/11/16 01:24:35;;;;;;;17.43;5.70;;;5.20;97.30;;;;;;5035634;28;20250;-86
2022/11/16 01:27:01;;;;;;;4.77;4.23;;;5.20;97.30;;;;;;5035739;28;20307;-85
2022/11/16 01:29:28;;;;;;;6.63;4.13;;;5.10;97.30;;;;;;5035588;28;20192;-87
2022/11/16 01:31:55;;;;;;;4.40;3.27;;;5.10;97.30;;;;;;5035762;28;20168;-86
2022/11/16 01:34:21;;;;;;;5.80;3.27;;;5.20;97.30;;;;;;5035462;28;20406;-86
2022/11/16 01:36:47;;;;;;;5.80;3.30;;;5.20;97.30;;;;;;5035568;28;20415;-86
2022/11/16 01:39:13;;;;;;;2.90;2.70;;;5.20;97.30;;;;;;5035205;28;20507;-86
2022/11/16 01:41:40;;;;;;;3.83;3.63;;;5.20;97.30;;;;;;5035350;28;20195;-86
2022/11/16 01:44:32;;;;;;;5.00;4.00;;;5.20;97.30;;;;;;5035386;28;20421;-86
2022/11/16 01:47:10;;;;;;;10.93;5.97;;;5.20;97.30;;;;;;5035412;28;20485;-86
2022/11/16 01:49:46;;;;;;;4.43;2.83;;;5.20;97.30;;;;;;5035179;28;20433;-86
2022/11/16 01:52:19;;;;;;;3.47;3.27;;;5.20;97.30;;;;;;5053326;28;20437;-86
2022/11/16 01:54:46;;;;;;;8.80;4.03;;;5.10;97.30;;;;;;5035131;28;20463;-86
2022/11/16 01:57:22;;;;;;;6.40;4.37;;;5.10;97.30;;;;;;5053157;28;20410;-86
2022/11/16 01:59:51;;;;;;;4.33;3.97;;;5.10;97.30;;;;;;5034956;28;20986;-86
2022/11/16 02:02:17;;;;;;;10.50;4.40;;;5.10;97.30;;;;;;5035398;28;20417;-86
2022/11/16 02:04:44;;;;;;;6.10;3.00;;;5.10;97.30;;;;;;5035222;28;20785;-87
2022/11/16 02:07:25;;;;;;;4.83;3.80;;;5.10;97.30;;;;;;5035257;28;20211;-86
2022/11/16 02:10:14;;;;;;;5.00;3.80;;;5.10;97.30;;;;;;5052438;28;20963;-86
2022/11/16 02:13:13;;;;;;;6.53;4.23;;;5.00;97.30;;;;;;5035016;28;20433;-86
2022/11/16 02:15:54;;;;;;;6.57;3.37;;;5.00;97.30;;;;;;5034708;28;20454;-86
2022/11/16 02:18:55;;;;;;;8.10;4.67;;;4.90;97.30;;;;;;5034578;28;20502;-86
2022/11/16 02:21:53;;;;;;;2.83;2.40;;;4.90;97.30;;;;;;5036004;28;21086;-88
2022/11/16 02:24:34;;;;;;;3.50;2.77;;;4.90;97.30;;;;;;5035316;28;20807;-87
2022/11/16 02:27:27;;;;;;;7.53;5.50;;;4.90;97.30;;;;;;5036179;28;20414;-87
2022/11/16 02:29:54;;;;;;;7.67;2.80;;;4.90;97.30;;;;;;5038031;28;20489;-87
2022/11/16 02:32:40;;;;;;;6.30;3.53;;;4.90;97.30;;;;;;5035084;28;20517;-87
2022/11/16 02:35:18;;;;;;;3.37;3.17;;;4.90;97.30;;;;;;5035628;28;20450;-87
2022/11/16 02:37:52;;;;;;;7.77;4.00;;;4.90;97.30;;;;;;5035600;28;20414;-87
2022/11/16 02:40:21;;;;;;;6.57;4.17;;;4.90;97.30;;;;;;5034374;28;20831;-87
2022/11/16 02:43:06;;;;;;;9.80;4.90;;;4.90;97.30;;;;;;5053848;28;20485;-87
2022/11/16 02:45:35;;;;;;;2.33;2.13;;;4.90;97.30;;;;;;5035283;28;20790;-87
2022/11/16 02:48:05;;;;;;;2.83;2.37;;;4.90;97.30;;;;;;5035125;28;20416;-87
2022/11/16 02:50:32;;;;;;;9.33;4.17;;;4.90;97.30;;;;;;5053369;28;20916;-86
2022/11/16 02:52:57;;;;;;;8.57;3.60;;;4.90;97.30;;;;;;5052884;28;20469;-87
2022/11/16 02:55:26;;;;;;;4.80;4.50;;;4.90;97.30;;;;;;5052817;28;21111;-87
2022/11/16 02:57:58;;;;;;;4.43;3.13;;;4.90;97.30;;;;;;5053380;28;20176;-87
2022/11/16 03:00:45;;;;;;;6.30;4.43;;;4.90;97.30;;;;;;5052061;28;20430;-87
2022/11/16 03:03:24;;;;;;;11.67;5.20;;;4.80;97.30;;;;;;5035296;28;20471;-86
2022/11/16 03:06:24;;;;;;;4.73;3.57;;;4.80;97.30;;;;;;5035381;28;20418;-87
2022/11/16 03:09:13;;;;;;;4.67;3.17;;;4.80;97.30;;;;;;5031958;28;20435;-87
2022/11/16 03:11:59;;;;;;;6.63;3.37;;;4.80;97.30;;;;;;5034520;28;20513;-86
2022/11/16 03:14:34;;;;;;;7.50;4.10;;;4.80;97.30;;;;;;5035499;28;20422;-86
2022/11/16 03:17:02;;;;;;;3.33;3.10;;;4.80;97.30;;;;;;5034478;28;20414;-86
2022/11/16 03:19:41;;;;;;;4.70;3.30;;;4.80;97.30;;;;;;5052910;28;20933;-86
2022/11/16 03:22:13;;;;;;;5.20;4.40;;;4.80;97.30;;;;;;5053116;28;20387;-87
2022/11/16 03:24:39;;;;;;;12.63;4.83;;;4.80;97.30;;;;;;5034285;28;20929;-87
2022/11/16 03:27:34;;;;;;;4.50;3.60;;;4.80;97.30;;;;;;5035274;28;20407;-86
2022/11/16 03:30:05;;;;;;;8.10;3.27;;;4.70;97.30;;;;;;5034690;28;20437;-87
2022/11/16 03:32:56;;;;;;;9.43;5.80;;;4.70;97.30;;;;;;5052112;28;20406;-87
2022/11/16 03:35:31;;;;;;;8.57;3.63;;;4.70;97.30;;;;;;5034713;28;20976;-86
2022/11/16 03:37:58;;;;;;;2.93;2.73;;;4.70;97.30;;;;;;5035796;28;20463;-87
2022/11/16 03:40:28;;;;;;;8.40;4.50;;;4.70;97.30;;;;;;5037422;28;20557;-87
2022/11/16 03:42:54;;;;;;;6.63;3.70;;;4.70;97.30;;;;;;5037442;28;20425;-87
2022/11/16 03:45:20;;;;;;;6.20;3.60;;;4.70;97.30;;;;;;5034117;28;20441;-86
2022/11/16 03:47:46;;;;;;;5.70;3.20;;;4.60;97.30;;;;;;5034665;28;20175;-87
2022/11/16 03:50:12;;;;;;;5.07;4.87;;;4.60;97.30;;;;;;5033399;28;20245;-87
2022/11/16 03:52:37;;;;;;;10.70;2.80;;;4.60;97.30;;;;;;5034302;28;20417;-86
2022/11/16 03:55:04;;;;;;;6.97;3.50;;;4.60;97.30;;;;;;5034259;28;20265;-87
2022/11/16 03:57:29;;;;;;;4.27;3.13;;;4.60;97.30;;;;;;5033633;28;20176;-86
2022/11/16 03:59:55;;;;;;;3.57;3.37;;;4.60;97.30;;;;;;5034552;28;20434;-86
2022/11/16 04:02:20;;;;;;;2.93;2.73;;;4.60;97.30;;;;;;5033161;28;20214;-86
2022/11/16 04:24:15;;;;;;;2.87;2.67;;;4.70;97.30;;;;;;5051207;28;20390;-86
2022/11/16 04:29:28;;;;;;;3.27;2.40;;;4.80;97.30;;;;;;5051908;28;20848;-86
2022/11/16 04:40:07;;;;;;;5.40;3.43;;;4.90;97.30;;;;;;5072139;22;20511;-84
2022/11/16 04:42:33;;;;;;;5.03;3.40;;;4.90;97.30;;;;;;5053191;28;20471;-85
2022/11/16 04:47:42;;;;;;;2.73;2.10;;;4.90;97.30;;;;;;5071045;28;20167;-87
2022/11/16 04:50:08;;;;;;;3.20;3.00;;;4.90;97.30;;;;;;5053699;28;20433;-87
2022/11/16 04:52:34;;;;;;;4.80;4.50;;;5.00;97.30;;;;;;5052931;28;20175;-87
2022/11/16 04:54:59;;;;;;;11.10;3.30;;;5.00;97.30;;;;;;5053222;28;20202;-86
2022/11/16 04:57:25;;;;;;;3.10;2.80;;;5.00;97.30;;;;;;5054012;28;20167;-87
2022/11/16 04:59:50;;;;;;;4.40;3.30;;;5.00;97.30;;;;;;5052734;28;20570;-85
2022/11/16 05:02:16;;;;;;;4.83;4.53;;;5.10;97.30;;;;;;5053724;28;20178;-85
2022/11/16 05:04:42;;;;;;;3.67;2.83;;;5.10;97.30;;;;;;5053259;28;20440;-87
2022/11/16 05:07:11;;;;;;;3.73;2.40;;;5.10;97.30;;;;;;5053006;28;20702;-87
2022/11/16 05:09:49;;;;;;;5.63;4.80;;;5.10;97.30;;;;;;5053747;28;20966;-87
2022/11/16 05:12:23;;;;;;;2.57;2.37;;;5.10;97.30;;;;;;5053690;28;20413;-86
2022/11/16 05:14:49;;;;;;;4.47;4.07;;;5.10;97.30;;;;;;5053143;28;21007;-87
2022/11/16 05:17:16;;;;;;;5.70;4.13;;;5.10;97.30;;;;;;5053509;28;20417;-87
2022/11/16 05:22:26;;;;;;;3.80;2.80;;;5.10;97.30;;;;;;5071828;28;20958;-86
2022/11/16 05:24:51;;;;;;;2.37;2.17;;;5.10;97.30;;;;;;5052909;28;20409;-87
2022/11/16 05:27:18;;;;;;;4.13;3.90;;;5.10;97.30;;;;;;5076781;28;20250;-88
2022/11/16 05:29:44;;;;;;;2.37;2.00;;;5.10;97.30;;;;;;5051897;28;20203;-87
2022/11/16 05:32:11;;;;;;;3.30;3.03;;;5.20;97.30;;;;;;5061456;28;20418;-87
2022/11/16 05:34:37;;;;;;;5.30;3.37;;;5.20;97.30;;;;;;5043661;28;20444;-88
2022/11/16 05:37:03;;;;;;;4.07;3.87;;;5.10;97.30;;;;;;5040241;28;20856;-87
2022/11/16 05:39:28;;;;;;;8.83;2.93;;;5.20;97.30;;;;;;5039447;28;20304;-88
2022/11/16 05:41:55;;;;;;;6.63;3.77;;;5.20;97.30;;;;;;5031363;28;20168;-86
2022/11/16 05:44:21;;;;;;;14.40;7.70;;;5.20;97.30;;;;;;5056708;28;20196;-87
2022/11/16 05:46:47;;;;;;;6.57;3.70;;;5.20;97.30;;;;;;5050315;28;20440;-86
2022/11/16 05:49:13;;;;;;;5.50;4.87;;;5.20;97.30;;;;;;5050346;28;20199;-88
2022/11/16 05:51:40;;;;;;;9.17;2.90;;;5.20;97.30;;;;;;5050436;28;20417;-87
2022/11/16 05:54:06;;;;;;;5.67;4.57;;;5.20;97.30;;;;;;5052870;28;20413;-87
2022/11/16 05:56:33;;;;;;;9.30;5.63;;;5.20;97.30;;;;;;5071816;28;20492;-86
2022/11/16 05:58:58;;;;;;;5.37;3.30;;;5.20;97.30;;;;;;5046399;28;20500;-87
2022/11/16 06:01:24;;;;;;;11.90;4.60;;;5.20;97.30;;;;;;5043929;28;20493;-89
2022/11/16 06:03:50;;;;;;;5.73;3.70;;;5.20;97.30;;;;;;5042743;28;20258;-87
2022/11/16 06:06:16;;;;;;;7.13;4.00;;;5.20;97.30;;;;;;5044295;28;20178;-86
2022/11/16 06:08:42;;;;;;;6.13;4.70;;;5.20;97.30;;;;;;5046253;28;20788;-87
2022/11/16 06:11:09;;;;;;;5.63;4.90;;;5.20;97.30;;;;;;5047737;28;20584;-87
2022/11/16 06:13:35;;;;;;;2.00;1.90;;;5.20;97.30;;;;;;5044638;28;20820;-87
2022/11/16 06:16:02;;;;;;;3.50;3.33;;;5.20;97.30;;;;;;5041004;28;20442;-86
2022/11/16 06:18:28;;;;;;;8.23;5.40;;;5.20;97.30;;;;;;5041382;28;20418;-87
2022/11/16 06:20:53;;;;;;;4.33;3.80;;;5.30;97.30;;;;;;5037077;28;20524;-87
2022/11/16 06:23:20;;;;;;;2.93;2.73;;;5.20;97.30;;;;;;5068118;28;20497;-88
2022/11/16 06:25:46;;;;;;;2.77;2.57;;;5.20;97.30;;;;;;5053701;28;20266;-87
2022/11/16 06:28:12;;;;;;;4.37;3.17;;;5.20;97.30;;;;;;5071833;28;20559;-87
2022/11/16 06:30:39;;;;;;;4.03;2.10;;;5.30;97.30;;;;;;5053336;28;20187;-87
2022/11/16 06:33:05;;;;;;;7.40;4.07;;;5.30;97.30;;;;;;5053912;28;20442;-86
2022/11/16 06:35:30;;;;;;;4.40;3.83;;;5.30;97.30;;;;;;5072525;28;20506;-87
2022/11/16 06:37:57;;;;;;;2.00;1.87;;;5.30;97.30;;;;;;5054869;28;20426;-87
2022/11/16 06:40:22;;;;;;;5.03;3.20;;;5.30;97.30;;;;;;5054427;28;20284;-87
2022/11/16 06:42:48;;;;;;;7.97;4.00;;;5.40;97.30;;;;;;5054417;28;20448;-87
2022/11/16 06:45:14;;;;;;;4.53;2.77;;;5.40;97.30;;;;;;5054451;28;20214;-87
2022/11/16 06:47:39;;;;;;;6.13;4.00;;;5.40;97.30;;;;;;5054543;28;20277;-87
2022/11/16 06:50:05;;;;;;;4.80;3.00;;;5.40;97.30;;;;;;5054724;28;20218;-86
2022/11/16 06:52:31;;;;;;;7.93;4.60;;;5.40;97.30;;;;;;5054605;28;20179;-87
2022/11/16 06:54:56;;;;;;;3.70;3.30;;;5.40;97.30;;;;;;5054504;28;20460;-86
2022/11/16 06:57:22;;;;;;;4.87;4.53;;;5.40;97.30;;;;;;5072783;28;20182;-86
2022/11/16 06:59:48;;;;;;;12.03;4.43;;;5.40;97.30;;;;;;5054375;28;20578;-87
2022/11/16 07:02:15;;;;;;;5.53;3.90;;;5.50;97.30;;;;;;5053993;28;20414;-87
2022/11/16 07:04:40;;;;;;;23.37;4.87;;;5.50;97.30;;;;;;5053291;28;20617;-87
2022/11/16 07:07:06;;;;;;;8.93;5.80;;;5.50;97.30;;;;;;5054831;28;20449;-87
2022/11/16 07:09:31;;;;;;;2.50;2.30;;;5.50;97.30;;;;;;5053643;28;20187;-88
2022/11/16 07:11:57;;;;;;;6.17;4.37;;;5.40;97.30;;;;;;5059381;28;20563;-87
2022/11/16 07:14:22;;;;;;;6.13;3.83;;;5.50;97.30;;;;;;5033782;28;20179;-87
2022/11/16 07:16:48;;;;;;;4.00;3.10;;;5.50;97.30;;;;;;5042896;28;20224;-87
2022/11/16 07:19:14;;;;;;;4.07;2.67;;;5.50;97.30;;;;;;5041117;28;20191;-87
2022/11/16 07:21:39;;;;;;;3.77;3.57;;;5.50;97.30;;;;;;5054327;28;20278;-87
2022/11/16 07:24:05;;;;;;;5.90;3.60;;;5.50;97.30;;;;;;5036776;28;20164;-87
2022/11/16 07:26:34;;;;;;;6.20;2.43;;;5.50;97.30;;;;;;5046167;28;20686;-86
2022/11/16 07:29:00;;;;;;;5.70;4.17;;;5.60;97.30;;;;;;5041572;28;20174;-87
2022/11/16 07:31:26;;;;;;;7.20;4.80;;;5.60;97.30;;;;;;5043266;28;20430;-87
2022/11/16 07:33:52;;;;;;;2.67;2.47;;;5.60;97.30;;;;;;5058968;28;20421;-87
2022/11/16 07:36:19;;;;;;;6.50;3.70;;;5.60;97.30;;;;;;5054224;28;20450;-86
2022/11/16 07:38:45;;;;;;;3.70;3.50;;;5.60;97.30;;;;;;5038641;28;20449;-87
2022/11/16 07:41:18;;;;;;;4.70;3.00;;;5.70;97.30;;;;;;5039096;28;20463;-87
2022/11/16 07:43:44;;;;;;;8.80;4.13;;;5.70;97.30;;;;;;5038291;28;20320;-86
2022/11/16 07:46:12;;;;;;;7.97;4.80;;;5.70;97.30;;;;;;5059508;28;20505;-88
2022/11/16 07:48:38;;;;;;;2.87;2.20;;;5.80;97.30;;;;;;5042083;28;20172;-86
2022/11/16 07:51:06;;;;;;;3.70;3.50;;;5.80;97.30;;;;;;5036724;28;20879;-86
2022/11/16 07:53:32;;;;;;;3.50;3.30;;;5.80;97.30;;;;;;5033339;28;20206;-86
2022/11/16 07:55:58;;;;;;;12.27;4.07;;;5.90;97.30;;;;;;5051989;28;20493;-87
2022/11/16 07:58:24;;;;;;;6.10;2.93;;;5.90;97.30;;;;;;5033344;28;20407;-87
2022/11/16 08:00:50;;;;;;;5.97;4.00;;;6.00;97.30;;;;;;5030867;28;20537;-85
2022/11/16 08:03:15;;;;;;;2.60;2.40;;;6.00;97.30;;;;;;5036866;28;20502;-88
2022/11/16 08:05:43;;;;;;;3.53;2.77;;;6.00;97.30;;;;;;5037866;28;20191;-86
2022/11/16 08:08:09;;;;;;;11.40;5.20;;;6.10;97.30;;;;;;5046438;28;20207;-85
2022/11/16 08:10:35;;;;;;;9.63;3.20;;;6.10;97.30;;;;;;5048055;28;20485;-86
2022/11/16 08:13:01;;;;;;;5.57;5.13;;;6.20;97.30;;;;;;5038933;28;20972;-86
2022/11/16 08:15:26;;;;;;;6.47;4.67;;;6.20;97.30;;;;;;5041748;28;20457;-87
2022/11/16 08:17:52;;;;;;;3.83;2.27;;;6.30;97.30;;;;;;5042493;28;20214;-86
2022/11/16 08:20:17;;;;;;;5.10;3.83;;;6.30;97.30;;;;;;5040869;28;20206;-86
2022/11/16 08:22:44;;;;;;;6.13;3.87;;;6.40;97.30;;;;;;5047546;28;20191;-87
2022/11/16 08:25:10;;;;;;;4.60;4.10;;;6.40;97.30;;;;;;5050501;28;20171;-86
2022/11/16 08:27:35;;;;;;;4.73;4.10;;;6.50;97.30;;;;;;5035098;28;20446;-86
2022/11/16 08:30:02;;;;;;;4.23;3.57;;;6.50;97.30;;;;;;5032292;28;20952;-89
2022/11/16 08:32:28;;;;;;;4.70;4.40;;;6.60;97.30;;;;;;5033205;28;20187;-87
2022/11/16 08:34:54;;;;;;;3.73;2.80;;;6.70;97.30;;;;;;5033429;28;20509;-87
2022/11/16 08:37:20;;;;;;;11.73;5.13;;;6.70;97.30;;;;;;5033176;28;20414;-86
2022/11/16 08:39:45;;;;;;;8.63;4.47;;;6.80;97.30;;;;;;5032441;28;20231;-86
2022/11/16 08:42:11;;;;;;;3.10;2.87;;;6.80;97.30;;;;;;5035898;28;20470;-87
2022/11/16 08:44:36;;;;;;;10.27;4.50;;;6.80;97.30;;;;;;5051812;28;20167;-87
2022/11/16 08:47:02;;;;;;;9.87;4.07;;;6.80;97.30;;;;;;5071155;28;20175;-88
2022/11/16 08:49:28;;;;;;;3.37;3.20;;;6.80;97.30;;;;;;5052555;28;20195;-86
2022/11/16 08:51:53;;;;;;;2.83;1.93;;;6.90;97.30;;;;;;5052883;28;20177;-86
2022/11/16 08:54:19;;;;;;;2.70;2.50;;;6.90;97.30;;;;;;5052324;28;20203;-87
2022/11/16 08:56:44;;;;;;;8.20;4.10;;;6.90;97.30;;;;;;5052823;28;20241;-88
2022/11/16 08:59:11;;;;;;;5.63;3.57;;;6.90;97.30;;;;;;5070415;28;20193;-84
2022/11/16 09:01:37;;;;;;;1.60;1.50;;;7.00;97.30;;;;;;5070923;28;20302;-84
2022/11/16 09:04:02;;;;;;;3.23;2.67;;;7.00;97.30;;;;;;5070643;28;20967;-84
2022/11/16 09:06:28;;;;;;;4.40;3.07;;;7.00;97.30;;;;;;5071119;28;20203;-84
2022/11/16 09:08:54;;;;;;;7.57;5.87;;;7.00;97.30;;;;;;5052909;28;20618;-84
2022/11/16 09:11:21;;;;;;;4.07;3.10;;;7.10;97.30;;;;;;5052622;28;20178;-84
2022/11/16 09:13:49;;;;;;;5.43;2.90;;;7.10;97.30;;;;;;5070946;28;20414;-85
2022/11/16 09:16:16;;;;;;;3.43;2.10;;;7.10;97.30;;;;;;5056005;28;20453;-86
2022/11/16 09:18:46;;;;;;;5.30;2.53;;;7.10;97.30;;;;;;5072900;28;20458;-85
2022/11/16 09:21:15;;;;;;;2.87;2.40;;;7.10;97.30;;;;;;5074794;28;20425;-84
2022/11/16 09:23:40;;;;;;;3.43;2.93;;;7.20;97.30;;;;;;5053176;28;20463;-84
2022/11/16 09:26:06;;;;;;;2.20;2.03;;;7.20;97.30;;;;;;5070768;28;20413;-84
2022/11/16 09:28:32;;;;;;;2.70;1.83;;;7.20;97.30;;;;;;5054548;28;20179;-84
2022/11/16 09:31:04;;;;;;;1.90;1.80;;;7.20;97.30;;;;;;5056328;28;20252;-84
2022/11/16 09:33:31;;;;;;;2.97;2.67;;;7.20;97.30;;;;;;5056338;28;20467;-84
2022/11/16 09:36:05;;;;;;;3.53;3.10;;;7.20;97.30;;;;;;5056014;28;20457;-84
2022/11/16 09:38:34;;;;;;;4.57;3.80;;;7.20;97.30;;;;;;5056456;28;20420;-84
2022/11/16 09:41:28;;;;;;;3.00;2.80;;;7.20;97.30;;;;;;5055487;28;21072;-84
2022/11/16 09:44:26;;;;;;;2.53;2.33;;;7.20;97.30;;;;;;5037780;28;20423;-85
2022/11/16 09:46:56;;;;;;;7.73;3.60;;;7.30;97.30;;;;;;5016547;28;20487;-84
2022/11/16 09:49:27;;;;;;;3.37;2.37;;;7.30;97.30;;;;;;5054935;28;20437;-86
2022/11/16 09:51:58;;;;;;;11.17;2.90;;;7.30;97.30;;;;;;5073315;28;20413;-86
2022/11/16 09:54:28;;;;;;;3.60;2.70;;;7.30;97.30;;;;;;5073963;28;20412;-85
2022/11/16 09:56:57;;;;;;;3.03;2.83;;;7.30;97.30;;;;;;5055956;28;20461;-86
2022/11/16 09:59:30;;;;;;;5.40;3.13;;;7.30;97.30;;;;;;5055096;28;20441;-86
2022/11/16 10:02:28;;;;;;;6.40;5.17;;;7.30;97.30;;;;;;5054631;28;20458;-84
2022/11/16 10:05:01;;;;;;;1.77;1.67;;;7.30;97.30;;;;;;5047082;28;20417;-86
2022/11/16 10:07:36;;;;;;;7.50;2.50;;;7.40;97.30;;;;;;5055456;28;20802;-85
2022/11/16 10:10:01;;;;;;;1.80;1.70;;;7.40;97.30;;;;;;5072965;28;20431;-86
2022/11/16 10:12:45;;;;;;;3.97;3.77;;;7.40;97.30;;;;;;5055516;28;20418;-86
2022/11/16 10:15:48;;;;;;;2.77;1.97;;;7.50;97.30;;;;;;5055681;28;20195;-86
2022/11/16 10:18:46;;;;;;;7.47;2.53;;;7.50;97.30;;;;;;5035397;28;20951;-86
2022/11/16 10:21:24;;;;;;;1.83;1.73;;;7.60;97.30;;;;;;5034920;28;20426;-86
2022/11/16 10:24:27;;;;;;;10.00;5.53;;;7.60;97.30;;;;;;5035468;28;20406;-86
2022/11/16 10:27:04;;;;;;;7.50;4.17;;;7.60;97.30;;;;;;5035006;28;20932;-86
2022/11/16 10:29:38;;;;;;;13.70;5.27;;;7.60;97.30;;;;;;5034897;28;20529;-85
2022/11/16 10:32:16;;;;;;;5.23;3.43;;;7.60;97.30;;;;;;5052442;28;20911;-86
2022/11/16 10:34:50;;;;;;;6.77;4.97;;;7.60;97.30;;;;;;5034808;28;20418;-86
2022/11/16 10:37:15;;;;;;;4.53;4.20;;;7.60;97.30;;;;;;5055968;28;20418;-87
2022/11/16 10:39:41;;;;;;;6.33;3.77;;;7.60;97.30;;;;;;5054297;28;20805;-86
2022/11/16 10:42:15;;;;;;;7.10;3.03;;;7.60;97.30;;;;;;5054307;28;20357;-86
2022/11/16 10:44:45;;;;;;;7.00;2.40;;;7.60;97.30;;;;;;5076007;23;20562;-83
2022/11/16 10:47:22;;;;;;;17.30;4.53;;;7.70;97.30;;;;;;5054671;28;20417;-84
2022/11/16 10:49:58;;;;;;;7.40;2.70;;;7.70;97.30;;;;;;5055077;28;20417;-84
2022/11/16 10:52:24;;;;;;;4.03;2.80;;;7.70;97.30;;;;;;5054250;28;20478;-84
2022/11/16 10:54:50;;;;;;;2.03;1.90;;;7.70;97.30;;;;;;5071557;28;20482;-84
2022/11/16 10:57:16;;;;;;;4.37;4.10;;;7.70;97.30;;;;;;5054011;28;20831;-84
2022/11/16 10:59:47;;;;;;;4.43;3.43;;;7.80;97.30;;;;;;5072591;28;20164;-84
2022/11/16 11:02:35;;;;;;;7.80;3.50;;;7.80;97.30;;;;;;5054898;28;20775;-83
2022/11/16 11:05:13;;;;;;;3.27;2.33;;;7.80;97.30;;;;;;5054820;28;20720;-84
2022/11/16 11:07:39;;;;;;;3.93;2.90;;;7.90;97.30;;;;;;5054661;28;20946;-84
2022/11/16 11:10:32;;;;;;;12.50;5.50;;;7.90;97.30;;;;;;5054587;28;20927;-84
2022/11/16 11:13:06;;;;;;;3.47;3.27;;;7.90;97.30;;;;;;5045197;28;20445;-84
2022/11/16 11:15:32;;;;;;;4.23;2.83;;;8.00;97.30;;;;;;5072122;28;20452;-84
2022/11/16 11:18:18;;;;;;;2.77;2.57;;;8.00;97.30;;;;;;5054536;28;20413;-84
2022/11/16 11:21:06;;;;;;;9.20;5.97;;;8.00;97.30;;;;;;5072507;28;20173;-84
2022/11/16 11:23:46;;;;;;;5.30;3.60;;;8.00;97.30;;;;;;5053946;28;20487;-84
2022/11/16 11:26:36;;;;;;;7.87;3.27;;;8.00;97.30;;;;;;5054547;28;20509;-84
2022/11/16 11:29:15;;;;;;;6.73;3.80;;;8.00;97.30;;;;;;5054364;28;20413;-84
2022/11/16 11:31:45;;;;;;;3.73;3.53;;;8.00;97.30;;;;;;5054468;28;20416;-84
2022/11/16 11:34:22;;;;;;;8.10;5.73;;;7.90;97.30;;;;;;5053810;28;20429;-84
2022/11/16 11:37:34;;;;;;;10.33;4.03;;;7.90;97.30;;;;;;5051570;28;20518;-84
2022/11/16 11:40:09;;;;;;;3.03;2.83;;;7.90;97.30;;;;;;5047438;28;20471;-84
2022/11/16 11:42:40;;;;;;;3.53;3.03;;;7.90;97.30;;;;;;5071127;28;20412;-84
2022/11/16 11:45:12;;;;;;;3.43;2.50;;;7.90;97.30;;;;;;5054204;28;20495;-84
2022/11/16 11:47:45;;;;;;;8.47;4.80;;;7.80;97.30;;;;;;5054387;28;20421;-84
2022/11/16 11:50:17;;;;;;;4.07;3.40;;;7.80;97.30;;;;;;5053672;28;20421;-84
2022/11/16 11:53:05;;;;;;;10.50;5.10;;;7.80;97.30;;;;;;5054226;28;20504;-84
2022/11/16 11:55:31;;;;;;;4.87;3.30;;;7.80;97.30;;;;;;5072288;28;20518;-84
2022/11/16 11:57:59;;;;;;;3.90;2.80;;;7.80;97.30;;;;;;5054784;28;20916;-84
2022/11/16 12:00:25;;;;;;;4.63;3.80;;;7.80;97.30;;;;;;5054788;28;20206;-85
2022/11/16 12:03:19;;;;;;;5.53;3.23;;;7.80;97.30;;;;;;5054686;28;20414;-84
2022/11/16 12:06:07;;;;;;;7.70;4.30;;;7.80;97.30;;;;;;5054859;28;20669;-85
2022/11/16 12:09:14;;;;;;;8.07;4.83;;;7.90;97.30;;;;;;5046859;28;20504;-85
2022/11/16 12:11:57;;;;;;;12.60;5.30;;;7.90;97.30;;;;;;5054408;28;20458;-85
2022/11/16 12:14:27;;;;;;;9.63;5.60;;;7.80;97.30;;;;;;5072918;28;20440;-85
2022/11/16 12:17:07;;;;;;;5.20;4.80;;;7.80;97.30;;;;;;5054306;28;20449;-85
2022/11/16 12:20:10;;;;;;;3.20;2.57;;;7.80;97.30;;;;;;5054943;28;20420;-85
2022/11/16 12:22:57;;;;;;;14.83;7.00;;;7.80;97.30;;;;;;5072370;28;20470;-85
2022/11/16 12:25:37;;;;;;;6.60;4.20;;;7.80;97.30;;;;;;5072578;28;20436;-86
2022/11/16 12:28:56;;;;;;;8.57;5.27;;;7.80;97.30;;;;;;5054519;28;20416;-85
2022/11/16 12:31:50;;;;;;;3.67;3.47;;;7.80;97.30;;;;;;5054716;28;20405;-84
2022/11/16 12:34:39;;;;;;;3.70;3.53;;;7.80;97.30;;;;;;5073203;28;20946;-85
2022/11/16 12:37:43;;;;;;;3.27;3.07;;;7.80;97.30;;;;;;5054418;28;20529;-85
2022/11/16 12:40:09;;;;;;;6.37;4.17;;;7.80;97.30;;;;;;5054586;28;20780;-85
2022/11/16 12:42:53;;;;;;;10.63;6.93;;;7.80;97.30;;;;;;5054371;28;20411;-85
2022/11/16 12:45:28;;;;;;;8.97;2.17;;;7.80;97.30;;;;;;5053853;28;20614;-85
2022/11/16 12:48:11;;;;;;;7.33;4.77;;;7.80;97.30;;;;;;5054292;28;20427;-85
2022/11/16 12:50:56;;;;;;;6.00;3.50;;;7.80;97.30;;;;;;5072602;28;20912;-85
2022/11/16 12:53:46;;;;;;;7.30;4.90;;;7.80;97.30;;;;;;5054152;28;20486;-85
2022/11/16 12:56:24;;;;;;;8.03;4.00;;;7.70;97.30;;;;;;5072117;28;20453;-85
2022/11/16 12:58:52;;;;;;;2.40;2.00;;;7.70;97.30;;;;;;5033898;28;20794;-82
2022/11/16 13:01:27;;;;;;;4.00;3.00;;;7.70;97.30;;;;;;5034362;28;20956;-85
2022/11/16 13:03:59;;;;;;;4.27;3.80;;;7.70;97.30;;;;;;5036800;28;20433;-85
2022/11/16 13:06:44;;;;;;;20.23;4.93;;;7.70;97.30;;;;;;5038176;28;20440;-85
2022/11/16 13:09:15;;;;;;;7.77;5.40;;;7.70;97.30;;;;;;5038533;28;20766;-85
2022/11/16 13:11:50;;;;;;;9.10;5.10;;;7.70;97.30;;;;;;5038114;28;20418;-85
2022/11/16 13:14:20;;;;;;;9.10;6.17;;;7.70;97.30;;;;;;5038452;28;20933;-85
2022/11/16 13:16:48;;;;;;;9.33;4.40;;;7.80;97.30;;;;;;5052318;28;20452;-85
2022/11/16 13:19:15;;;;;;;9.97;5.77;;;7.70;97.30;;;;;;5065786;28;20402;-85
2022/11/16 13:21:49;;;;;;;12.07;6.53;;;7.70;97.30;;;;;;5077801;28;20496;-82
2022/11/16 13:24:27;;;;;;;7.70;5.53;;;7.70;97.30;;;;;;5072283;28;20821;-85
2022/11/16 13:27:33;;;;;;;12.13;5.10;;;7.70;97.30;;;;;;5050896;28;20916;-85
2022/11/16 13:30:23;;;;;;;13.70;8.47;;;7.70;97.30;;;;;;5057740;28;20413;-85
2022/11/16 13:33:11;;;;;;;7.30;4.33;;;7.70;97.30;;;;;;5057522;28;20924;-85
2022/11/16 13:35:37;;;;;;;10.83;5.00;;;7.70;97.30;;;;;;5075729;28;20451;-84
2022/11/16 13:38:07;;;;;;;23.57;7.60;;;7.70;97.30;;;;;;5060062;28;20417;-85
2022/11/16 13:40:33;;;;;;;25.50;5.70;;;7.70;97.30;;;;;;5075634;28;20401;-85
2022/11/16 13:43:10;;;;;;;20.10;7.30;;;7.70;97.30;;;;;;5057526;28;20424;-85
2022/11/16 13:45:40;;;;;;;10.37;7.07;;;7.70;97.30;;;;;;5075357;28;20214;-85
2022/11/16 13:48:32;;;;;;;9.70;5.63;;;7.70;97.30;;;;;;5057499;28;20459;-85
2022/11/16 13:51:01;;;;;;;14.30;7.50;;;7.70;97.30;;;;;;5075831;28;20409;-85
2022/11/16 13:53:29;;;;;;;20.97;8.60;;;7.60;97.30;;;;;;5057083;28;20982;-85
2022/11/16 13:56:12;;;;;;;10.87;5.57;;;7.60;97.30;;;;;;5075273;28;20449;-85